Time;durP1;ratioP1;P1;durP2;ratioP2;P2;SDS_P1;SDS_P2;PMS_P1;PMS_P2;Temp;Humidity;BMP_temperature;BMP_pressure;BME280_temperature;BME280_humidity;BME280_pressure;Samples;Min_cycle;Max_cycle;Signal;HPM_P1;HPM_P2
2021/10/26 17:05:31;;;;;;;9.50;2.60;;;;;;;;;;10534178;27;20630;-87
2021/10/26 17:10:39;;;;;;;2.33;2.13;;;;;;;;;;10497449;28;20052;-89
2021/10/26 17:15:45;;;;;;;5.82;2.78;;;;;;;;;;10491637;28;20029;-87
2021/10/26 17:20:45;;;;;;;3.67;2.33;;;;;;;;;;10489537;28;20363;-89
2021/10/26 17:25:48;;;;;;;6.47;2.20;;;;;;;;;;10490330;28;20032;-86
2021/10/26 17:30:50;;;;;;;5.25;2.58;;;;;;;;;;10494425;28;20032;-89
2021/10/26 17:35:55;;;;;;;7.63;2.75;;;;;;;;;;10507712;28;20155;-90
2021/10/26 17:46:07;;;;;;;7.13;3.00;;;;;;;;;;10511131;28;20064;-90
2021/10/26 17:51:09;;;;;;;4.32;2.53;;;;;;;;;;10491832;28;20040;-89
2021/10/26 17:56:11;;;;;;;6.70;2.80;;;;;;;;;;10496898;28;20060;-89
2021/10/26 18:01:13;;;;;;;4.20;2.60;;;;;;;;;;10506152;28;20371;-89
2021/10/26 18:06:14;;;;;;;6.57;3.20;;;;;;;;;;10494615;28;20043;-89
2021/10/26 18:11:16;;;;;;;4.70;2.97;;;;;;;;;;10494913;28;20067;-89
2021/10/26 18:16:16;;;;;;;6.18;3.35;;;;;;;;;;10461240;28;20430;-89
2021/10/26 18:21:17;;;;;;;7.13;2.97;;;;;;;;;;10442914;28;20021;-88
2021/10/26 18:26:18;;;;;;;5.93;3.60;;;;;;;;;;10462362;28;20798;-88
2021/10/26 18:31:20;;;;;;;7.47;3.35;;;;;;;;;;10461149;28;21027;-89
2021/10/26 18:36:21;;;;;;;4.68;3.20;;;;;;;;;;10439721;28;20126;-91
2021/10/26 18:41:27;;;;;;;11.10;3.20;;;;;;;;;;10461704;28;20110;-91
2021/10/26 18:46:28;;;;;;;8.20;3.88;;;;;;;;;;10459346;28;20497;-90
2021/10/26 18:51:28;;;;;;;6.40;3.47;;;;;;;;;;10457693;28;20043;-91
2021/10/26 18:56:29;;;;;;;8.80;3.47;;;;;;;;;;10458416;28;20029;-91
2021/10/26 19:01:29;;;;;;;5.53;3.40;;;;;;;;;;10468624;28;20489;-90
2021/10/26 19:06:32;;;;;;;5.93;3.40;;;;;;;;;;10455560;28;20033;-91
2021/10/26 19:11:33;;;;;;;8.57;3.95;;;;;;;;;;10449699;28;20048;-91
2021/10/26 19:16:33;;;;;;;8.35;3.40;;;;;;;;;;10459522;28;20029;-91
2021/10/26 19:21:34;;;;;;;11.38;4.25;;;;;;;;;;10462165;28;20108;-90
2021/10/26 19:26:34;;;;;;;10.95;4.15;;;;;;;;;;10455787;28;20116;-91
2021/10/26 19:31:35;;;;;;;6.40;3.33;;;;;;;;;;10441905;28;20037;-91
2021/10/26 19:36:35;;;;;;;10.50;3.70;;;;;;;;;;10457277;28;20971;-91
2021/10/26 19:41:36;;;;;;;9.75;3.58;;;;;;;;;;10465759;28;20465;-91
2021/10/26 19:46:40;;;;;;;8.00;4.22;;;;;;;;;;10460257;22;20065;-91
2021/10/26 19:51:40;;;;;;;6.22;3.35;;;;;;;;;;10417818;28;20044;-91
2021/10/26 19:56:41;;;;;;;7.13;3.80;;;;;;;;;;10415520;28;20037;-91
2021/10/26 20:01:42;;;;;;;12.05;4.50;;;;;;;;;;10399600;28;20124;-91
2021/10/26 20:06:43;;;;;;;7.05;3.70;;;;;;;;;;10414542;28;20461;-91
2021/10/26 20:11:47;;;;;;;10.02;4.50;;;;;;;;;;10414133;28;20125;-91
2021/10/26 20:16:49;;;;;;;8.45;4.22;;;;;;;;;;10414856;28;20033;-91
2021/10/26 20:22:15;;;;;;;12.32;4.15;;;;;;;;;;10425852;28;20091;-91
2021/10/26 20:32:10;;;;;;;9.10;4.40;;;;;;;;;;10416571;28;20046;-91
2021/10/26 20:37:11;;;;;;;7.15;4.50;;;;;;;;;;10424532;28;20387;-91
2021/10/26 20:42:11;;;;;;;13.23;4.15;;;;;;;;;;10417460;28;20551;-90
2021/10/26 20:47:12;;;;;;;15.20;5.10;;;;;;;;;;10415690;28;20041;-89
2021/10/26 20:52:13;;;;;;;17.17;4.80;;;;;;;;;;10400184;28;20060;-87
2021/10/26 20:57:13;;;;;;;14.30;4.88;;;;;;;;;;10427798;28;20415;-87
2021/10/26 21:02:15;;;;;;;24.73;6.23;;;;;;;;;;10411597;28;20029;-87
2021/10/26 21:07:15;;;;;;;12.40;5.32;;;;;;;;;;10413931;28;20517;-84
2021/10/26 21:12:16;;;;;;;13.15;4.93;;;;;;;;;;10410666;28;20048;-83
2021/10/26 21:17:17;;;;;;;13.52;5.50;;;;;;;;;;10410492;28;20427;-83
2021/10/26 21:22:17;;;;;;;11.70;5.22;;;;;;;;;;10410644;28;20026;-81
2021/10/26 21:27:18;;;;;;;12.07;5.27;;;;;;;;;;10417622;28;20442;-82
2021/10/26 21:32:26;;;;;;;11.02;4.75;;;;;;;;;;10413626;28;20458;-83
2021/10/26 21:42:27;;;;;;;16.97;5.20;;;;;;;;;;10415840;28;20037;-84
2021/10/26 21:47:27;;;;;;;20.60;6.03;;;;;;;;;;10408506;28;20509;-84
2021/10/26 21:52:28;;;;;;;28.50;5.40;;;;;;;;;;10424188;28;20443;-84
2021/10/26 21:57:30;;;;;;;12.13;4.70;;;;;;;;;;10419420;28;20029;-85
2021/10/26 22:02:30;;;;;;;12.65;4.85;;;;;;;;;;10417739;28;20047;-84
2021/10/26 22:07:31;;;;;;;23.05;5.32;;;;;;;;;;10417974;28;20025;-84
2021/10/26 22:12:32;;;;;;;13.02;4.57;;;;;;;;;;10419715;28;20053;-83
2021/10/26 22:17:33;;;;;;;16.42;4.97;;;;;;;;;;10417967;28;20029;-84
2021/10/26 22:22:34;;;;;;;10.45;4.90;;;;;;;;;;10417060;28;20034;-83
2021/10/26 22:27:35;;;;;;;12.07;5.20;;;;;;;;;;10408727;28;20075;-83
2021/10/26 22:32:36;;;;;;;12.45;5.05;;;;;;;;;;10408720;28;20034;-83
2021/10/26 22:37:37;;;;;;;14.05;5.10;;;;;;;;;;10417522;28;20125;-83
2021/10/26 22:42:37;;;;;;;12.23;4.50;;;;;;;;;;10420220;28;20117;-83
2021/10/26 22:47:37;;;;;;;8.87;4.60;;;;;;;;;;10419936;28;20471;-84
2021/10/26 22:52:38;;;;;;;12.27;4.23;;;;;;;;;;10418551;28;21026;-83
2021/10/26 22:57:38;;;;;;;10.33;4.60;;;;;;;;;;10418976;28;20531;-84
2021/10/26 23:02:39;;;;;;;13.13;5.13;;;;;;;;;;10418080;28;20393;-83
2021/10/26 23:07:39;;;;;;;7.28;4.13;;;;;;;;;;10432292;28;20435;-83
2021/10/26 23:12:40;;;;;;;12.27;4.83;;;;;;;;;;10416980;28;20033;-84
2021/10/26 23:17:40;;;;;;;13.27;4.83;;;;;;;;;;10406613;28;20452;-85
2021/10/26 23:22:41;;;;;;;12.57;4.68;;;;;;;;;;10415602;28;20549;-85
2021/10/26 23:27:42;;;;;;;8.88;4.32;;;;;;;;;;10434720;28;20029;-85
2021/10/26 23:32:43;;;;;;;8.57;4.30;;;;;;;;;;10416594;28;20483;-85
2021/10/26 23:37:43;;;;;;;9.13;4.53;;;;;;;;;;10416175;28;20033;-86
2021/10/26 23:42:44;;;;;;;8.73;4.03;;;;;;;;;;10417836;28;20419;-86
2021/10/26 23:47:45;;;;;;;8.38;3.75;;;;;;;;;;10401955;28;20052;-86
2021/10/26 23:52:45;;;;;;;11.45;4.68;;;;;;;;;;10416608;28;20033;-86
2021/10/26 23:57:46;;;;;;;9.55;4.60;;;;;;;;;;10414719;28;20018;-85
